Marquette Farm, Indiana
Current Conditions -  °F | °C
As of 12:53 AM on Monday 20 Oct 2014 (Local Time) from KHUF Reporting Station
Broken Clouds Broken Clouds  
Wind Chill: 43°   Ceiling: 11000
Heat Index: 46°   Visibility: 10mi
Dew Point: 43°   Wind: 6mph
Humidity: 89%   Direction: 180°S
Pressure: 30.03"   Gusts: NA
Location:  39.543°N, 87.3153°W
Report Text: KHUF 200453Z AUTO 18005KT 10SM BKN110 08/06 A3003 RMK AO2 SLP171 T00780061 401280022
Loading
Personal Weather Stations






























Interactive Weather Map
Tropical Storm Tracking
New forecast layout! Learn more

10-Day Weather Forecast

Advertisements
Track Severe Weather on mobile